Dobrodošli na spletni strani vremenske postaje Senovo. Vse informacije so informativnega značaja, saj vremenska postaja ni del državne mreže meteoroloških postaj. AKTUALNIH OBVESTIL NI.


Sneg/Led Od: 21-02-2018 00:00 Do: 23-02-2018 23:59 Opozorilo za: Sneg/Led Stopnja: Rumena info button
Veter Od: 21-02-2018 00:00 Do: 22-02-2018 23:59 Opozorilo za: Veter Stopnja: Rumena info button

Pogled proti Armezu več informacij Pogled proti Armezu


Lisca več informacij Lisca


Radar strel več informacij blitzortung!


opozorilo za sneg/led več informacij rain snow radar


Obiščite še:

Template documentation
and downloads

And another site



Weather Underground, zgodovina - Tekstovno

Dnevni povzetek za Januar 7, 2018 Enote:  Metrično    Angleško   Obe
« Predhodni Dan
Naslednji Dan »
Dnevni Tedenski Mesečni Letni Po meri
  Višja: Nižja: Povprečje:
Temperatura: -17.8 °C -15.9 °C -13.8 °C
Točka rosišča: -17.8 °C -16.3 °C -14.4 °C
Vlažnost: Humidity % 83 % 93 %
Hitrost vetra: 0 km/h 0 km/h 0.8 km/h
Sunki vetra: 0 km/h - -
Veter:- - SW
Zračni tlak: 0 hPa 34303.6 hPa -
Padavine: 0 mm    
Historical Graphs
 
 
Tabelarni podarki za Januar 7, 2018
Čas Temperatura Točka rosišča Zračni tlak Veter Hitrost vetra Sunki vetra Vlažnost Intenziteta padavin (urna)
-17.8 °C -17.8 °C 0 hPa Calm     Humidity % 0 mm
00:00 -14.2 °C -14.8 °C 34303.6 hPa NW 1.6 km/h 8 km/h 93 % 0 mm
00:05 -14.2 °C -14.8 °C 34303.6 hPa NW 2.3 km/h 8 km/h 93 % 0 mm
00:09 -14.2 °C -14.8 °C 34303.6 hPa NW 1.8 km/h 8 km/h 93 % 0 mm
00:14 -14.3 °C -14.8 °C 34303.6 hPa Calm     93 % 0 mm
00:17 -14.3 °C -14.9 °C 34303.6 hPa Calm   2.9 km/h 93 % 0 mm
00:22 -14.4 °C -14.9 °C 34303.6 hPa Calm   2.9 km/h 93 % 0 mm
00:26 -14.4 °C -14.9 °C 34303.6 hPa Calm     93 % 0 mm
00:31 -14.4 °C -15.1 °C 34303.6 hPa NW 0.3 km/h 5.1 km/h 93 % 0 mm
00:36 -14.4 °C -14.9 °C 34303.6 hPa NW 0.5 km/h 5.1 km/h 93 % 0 mm
00:41 -14.4 °C -15.1 °C 34303.6 hPa Calm     93 % 0 mm
00:47 -14.6 °C -15.1 °C 34303.6 hPa Calm     94 % 0 mm
00:49 -14.6 °C -15.1 °C 34303.6 hPa Calm     94 % 0 mm
00:55 -14.7 °C -15.2 °C 34303.6 hPa Calm     93 % 0 mm
01:00 -14.7 °C -15.2 °C 34337.4 hPa Calm     94 % 0 mm
01:05 -14.8 °C -15.3 °C 34337.4 hPa Calm     94 % 0 mm
01:10 -14.8 °C -15.3 °C 34337.4 hPa Calm     94 % 0 mm
01:16 -14.9 °C -15.4 °C 34337.4 hPa Calm   2.3 km/h 94 % 0 mm
01:21 -15 °C -15.5 °C 34337.4 hPa Calm   2.3 km/h 94 % 0 mm
01:26 -15 °C -15.5 °C 34337.4 hPa NW 0.8 km/h 6.4 km/h 94 % 0 mm
01:31 -15.1 °C -15.6 °C 34337.4 hPa NW 1 km/h 6.4 km/h 94 % 0 mm
01:36 -15.1 °C -15.6 °C 34337.4 hPa Calm     94 % 0 mm
01:41 -15.1 °C -15.6 °C 34337.4 hPa Calm     94 % 0 mm
01:42 -15.1 °C -15.6 °C 34337.4 hPa Calm     94 % 0 mm
01:47 -15.2 °C -15.7 °C 34337.4 hPa NNW 0.5 km/h 5.1 km/h 94 % 0 mm
01:48 -15.2 °C -15.7 °C 34337.4 hPa NNW 0.5 km/h 5.1 km/h 94 % 0 mm
01:54 -15.2 °C -15.7 °C 34337.4 hPa NNW 1 km/h 5.1 km/h 94 % 0 mm
01:57 -15.2 °C -15.7 °C 34337.4 hPa NNW 0.5 km/h 2.9 km/h 94 % 0 mm
02:00 -15.2 °C -15.7 °C 34337.4 hPa North 0.3 km/h   94 % 0 mm
02:05 -15.3 °C -15.8 °C 34337.4 hPa Calm     94 % 0 mm
02:10 -15.4 °C -15.9 °C 34337.4 hPa Calm     94 % 0 mm
02:11 -15.4 °C -15.9 °C 34337.4 hPa Calm     94 % 0 mm
02:16 -15.4 °C -15.9 °C 34371.3 hPa Calm     94 % 0 mm
02:22 -15.5 °C -16 °C 34371.3 hPa Calm     94 % 0 mm
02:26 -15.6 °C -16.1 °C 34371.3 hPa Calm     94 % 0 mm
02:29 -15.6 °C -16.1 °C 34371.3 hPa Calm     94 % 0 mm
02:34 -15.6 °C -16 °C 34371.3 hPa Calm     95 % 0 mm
02:40 -15.6 °C -16.1 °C 34371.3 hPa SW 0.3 km/h 5.1 km/h 94 % 0 mm
02:44 -15.7 °C -16.1 °C 34371.3 hPa SW 0.3 km/h 5.1 km/h 95 % 0 mm
02:49 -15.7 °C -16.1 °C 34371.3 hPa North 0.3 km/h   95 % 0 mm
02:53 -15.7 °C -16.1 °C 34371.3 hPa Calm     95 % 0 mm
02:59 -15.7 °C -16.1 °C 34371.3 hPa Calm     95 % 0 mm
03:04 -15.8 °C -16.2 °C 34371.3 hPa Calm     95 % 0 mm
03:09 -15.8 °C -16.2 °C 34371.3 hPa Calm     95 % 0 mm
03:12 -15.8 °C -16.2 °C 34371.3 hPa Calm     95 % 0 mm
03:17 -15.8 °C -16.2 °C 34371.3 hPa Calm     95 % 0 mm
03:22 -15.8 °C -16.2 °C 34371.3 hPa Calm     95 % 0 mm
03:24 -15.8 °C -16.2 °C 34371.3 hPa Calm     95 % 0 mm
03:29 -15.9 °C -16.3 °C 34371.3 hPa Calm     95 % 0 mm
03:32 -15.9 °C -16.3 °C 34371.3 hPa Calm     95 % 0 mm
03:37 -15.9 °C -16.3 °C 34371.3 hPa Calm     95 % 0 mm
03:38 -15.9 °C -16.3 °C 34371.3 hPa Calm     95 % 0 mm
03:43 -15.9 °C -16.3 °C 34371.3 hPa Calm     95 % 0 mm
03:44 -15.8 °C -16.2 °C 34371.3 hPa Calm     95 % 0 mm
03:49 -15.9 °C -16.3 °C 34371.3 hPa NW 0.8 km/h 6.4 km/h 95 % 0 mm
03:53 -15.9 °C -16.3 °C 34371.3 hPa NW 1 km/h 6.4 km/h 95 % 0 mm
03:58 -15.9 °C -16.3 °C 34371.3 hPa NNW 1 km/h 6.4 km/h 95 % 0 mm
04:03 -15.8 °C -16.2 °C 34371.3 hPa Calm     95 % 0 mm
04:06 -15.8 °C -16.2 °C 34371.3 hPa Calm     95 % 0 mm
04:11 -15.8 °C -16.1 °C 34371.3 hPa Calm     96 % 0 mm
04:16 -15.8 °C -16.1 °C 34337.4 hPa Calm     96 % 0 mm
04:20 -15.8 °C -16.1 °C 34337.4 hPa Calm     96 % 0 mm
04:25 -15.8 °C -16.1 °C 34337.4 hPa Calm     96 % 0 mm
04:28 -15.8 °C -16.1 °C 34371.3 hPa Calm     96 % 0 mm
04:34 -15.8 °C -16.1 °C 34371.3 hPa Calm     96 % 0 mm
04:39 -15.8 °C -16.1 °C 34371.3 hPa Calm     96 % 0 mm
04:45 -15.8 °C -16.1 °C 34337.4 hPa Calm     96 % 0 mm
04:50 -15.8 °C -16.1 °C 34337.4 hPa Calm     96 % 0 mm
04:55 -15.8 °C -16.1 °C 34337.4 hPa Calm     96 % 0 mm
05:01 -15.8 °C -16.2 °C 34337.4 hPa Calm     96 % 0 mm
05:06 -15.9 °C -16.2 °C 34337.4 hPa Calm     96 % 0 mm
05:08 -15.9 °C -16.2 °C 34337.4 hPa Calm     96 % 0 mm
05:13 -15.9 °C -16.2 °C 34371.3 hPa Calm     96 % 0 mm
05:16 -15.9 °C -16.2 °C 34371.3 hPa Calm   2.3 km/h 96 % 0 mm
05:21 -15.9 °C -16.3 °C 34371.3 hPa WNW 1.3 km/h 7.6 km/h 96 % 0 mm
05:26 -15.9 °C -16.3 °C 34371.3 hPa NW 3.4 km/h 7.6 km/h 96 % 0 mm
05:33 -15.9 °C -16.3 °C 34371.3 hPa NW 1.3 km/h 6.9 km/h 96 % 0 mm
05:39 -15.9 °C -16.2 °C 34371.3 hPa Calm     96 % 0 mm
05:40 -15.9 °C -16.2 °C 34371.3 hPa Calm     96 % 0 mm
05:45 -15.9 °C -16.2 °C 34405.1 hPa Calm     96 % 0 mm
05:50 -15.8 °C -16.1 °C 34405.1 hPa Calm     96 % 0 mm
05:56 -15.7 °C -16.1 °C 34405.1 hPa Calm     96 % 0 mm
05:59 -15.7 °C -16.1 °C 34405.1 hPa Calm     96 % 0 mm
06:04 -15.7 °C -16 °C 34405.1 hPa Calm     96 % 0 mm
06:07 -15.7 °C -16 °C 34405.1 hPa Calm     96 % 0 mm
06:12 -15.6 °C -15.9 °C 34405.1 hPa Calm     97 % 0 mm
06:17 -15.6 °C -15.9 °C 34405.1 hPa Calm     96 % 0 mm
06:23 -15.5 °C -15.8 °C 34405.1 hPa Calm     96 % 0 mm
06:28 -15.4 °C -15.8 °C 34405.1 hPa Calm     96 % 0 mm
06:30 -15.4 °C -15.8 °C 34405.1 hPa Calm     96 % 0 mm
06:35 -15.4 °C -15.8 °C 34405.1 hPa NNW 0.5 km/h 5.1 km/h 96 % 0 mm
06:40 -15.4 °C -15.8 °C 34405.1 hPa NNW 0.5 km/h 5.1 km/h 96 % 0 mm
06:45 -15.5 °C -15.8 °C 34405.1 hPa Calm   2.3 km/h 96 % 0 mm
06:50 -15.5 °C -15.8 °C 34405.1 hPa Calm   2.3 km/h 96 % 0 mm
06:55 -15.5 °C -15.8 °C 34405.1 hPa Calm     96 % 0 mm
07:00 -15.5 °C -15.8 °C 34405.1 hPa Calm     96 % 0 mm
07:05 -15.5 °C -15.8 °C 34405.1 hPa Calm     96 % 0 mm
07:10 -15.5 °C -15.7 °C 34405.1 hPa Calm     97 % 0 mm
07:16 -15.5 °C -15.7 °C 34428.8 hPa Calm     97 % 0 mm
07:21 -15.5 °C -15.7 °C 34428.8 hPa Calm     97 % 0 mm
07:26 -15.5 °C -15.7 °C 34428.8 hPa Calm     97 % 0 mm
07:31 -15.4 °C -15.7 °C 34428.8 hPa Calm     97 % 0 mm
07:36 -15.4 °C -15.7 °C 34428.8 hPa Calm     97 % 0 mm
07:38 -15.4 °C -15.7 °C 34428.8 hPa Calm     97 % 0 mm
07:44 -15.4 °C -15.6 °C 34428.8 hPa Calm     97 % 0 mm
07:46 -15.4 °C -15.6 °C 34428.8 hPa Calm     97 % 0 mm
07:51 -15.3 °C -15.6 °C 34428.8 hPa Calm     97 % 0 mm
07:56 -15.3 °C -15.5 °C 34428.8 hPa Calm     97 % 0 mm
08:02 -15.2 °C -15.4 °C 34405.1 hPa Calm     97 % 0 mm
08:05 -15.2 °C -15.4 °C 34405.1 hPa Calm     97 % 0 mm
08:09 -15.2 °C -15.4 °C 34405.1 hPa Calm     97 % 0 mm
08:15 -15.1 °C -15.3 °C 34428.8 hPa Calm     97 % 0 mm
08:16 -15.1 °C -15.3 °C 34428.8 hPa Calm     97 % 0 mm
08:21 -15 °C -15.2 °C 34428.8 hPa ESE 1.3 km/h 6.4 km/h 97 % 0 mm
08:22 -15 °C -15.2 °C 34428.8 hPa ESE 1.3 km/h 6.4 km/h 97 % 0 mm
08:28 -14.9 °C -15.2 °C 34428.8 hPa ESE 1 km/h 6.4 km/h 97 % 0 mm
08:33 -14.9 °C -15.1 °C 34428.8 hPa Calm     97 % 0 mm
08:38 -14.8 °C -15.1 °C 34428.8 hPa Calm     97 % 0 mm
08:43 -14.8 °C -15.1 °C 34476.3 hPa Calm     97 % 0 mm
08:48 -14.8 °C -15.1 °C 34476.3 hPa Calm     97 % 0 mm
08:53 -14.7 °C -14.9 °C 34476.3 hPa Calm     97 % 0 mm
08:58 -14.7 °C -14.9 °C 34496.6 hPa Calm     97 % 0 mm
08:59 -14.7 °C -14.9 °C 34496.6 hPa Calm     97 % 0 mm
09:04 -14.7 °C -14.9 °C 34496.6 hPa Calm     97 % 0 mm
09:06 -14.6 °C -14.8 °C 34496.6 hPa Calm     97 % 0 mm
09:11 -14.6 °C -14.8 °C 34496.6 hPa Calm     97 % 0 mm
09:16 -14.5 °C -14.8 °C 34496.6 hPa Calm   6.9 km/h 97 % 0 mm
09:18 -14.5 °C -14.8 °C 34496.6 hPa ESE 0.3 km/h 6.9 km/h 97 % 0 mm
09:28 -14.3 °C -14.6 °C 34496.6 hPa ESE 0.5 km/h 4.2 km/h 97 % 0 mm
09:33 -14.2 °C -14.5 °C 34496.6 hPa SW 0.8 km/h 6.9 km/h 97 % 0 mm
09:38 -14.1 °C -14.3 °C 34496.6 hPa SW 2.1 km/h 6.9 km/h 97 % 0 mm
09:43 -14 °C -14.3 °C 34476.3 hPa SW 1.3 km/h 6.9 km/h 97 % 0 mm
09:44 -13.9 °C -14.2 °C 34476.3 hPa North 0.3 km/h   97 % 0 mm
09:47 -13.9 °C -14.1 °C 34476.3 hPa Calm     97 % 0 mm
09:52 -13.8 °C -14.1 °C 34476.3 hPa SE 1 km/h 6.9 km/h 97 % 0 mm
09:54 -13.8 °C -14.1 °C 34476.3 hPa SE 1.3 km/h 6.9 km/h 97 % 0 mm
09:59 -13.7 °C -14 °C 34496.6 hPa SSE 1 km/h 6.9 km/h 97 % 0 mm
10:04 -13.6 °C -13.8 °C 34496.6 hPa Calm     97 % 0 mm
10:09 -13.5 °C -13.7 °C 34496.6 hPa Calm   3.4 km/h 97 % 0 mm
10:13 -13.4 °C -13.7 °C 34496.6 hPa Calm   3.4 km/h 97 % 0 mm
10:19 -13.3 °C -13.6 °C 34496.6 hPa Calm     97 % 0 mm
10:21 -13.3 °C -13.5 °C 34496.6 hPa Calm     97 % 0 mm
10:27 -13.2 °C -13.4 °C 34496.6 hPa Calm     97 % 0 mm
10:32 -13.1 °C -13.4 °C 34496.6 hPa SE 1.6 km/h 6.9 km/h 97 % 0 mm
10:36 -13.1 °C -13.3 °C 34496.6 hPa SE 2.3 km/h 6.9 km/h 97 % 0 mm
10:41 -13 °C -13.2 °C 34496.6 hPa SSE 1.3 km/h 5.1 km/h 97 % 0 mm
10:42 -12.9 °C -13.1 °C 34496.6 hPa SSE 0.8 km/h 5.1 km/h 98 % 0 mm
10:47 -12.9 °C -13.1 °C 34496.6 hPa Calm     98 % 0 mm
10:52 -12.8 °C -13 °C 34496.6 hPa Calm     98 % 0 mm
10:53 -12.8 °C -13 °C 34496.6 hPa Calm     97 % 0 mm
10:58 -12.7 °C -12.9 °C 34496.6 hPa Calm     97 % 0 mm
11:01 -12.7 °C -12.9 °C 34496.6 hPa Calm     97 % 0 mm
11:06 -12.6 °C -12.7 °C 34496.6 hPa Calm     98 % 0 mm
11:11 -12.4 °C -12.6 °C 34496.6 hPa SSE 0.5 km/h 6.4 km/h 98 % 0 mm
11:13 -12.4 °C -12.6 °C 34496.6 hPa SE 1.8 km/h 7.6 km/h 98 % 0 mm
11:18 -12.3 °C -12.5 °C 34496.6 hPa SE 3.7 km/h 7.6 km/h 98 % 0 mm
11:24 -12.2 °C -12.4 °C 34496.6 hPa SE 2.6 km/h 6.4 km/h 97 % 0 mm
11:25 -12.2 °C -12.4 °C 34496.6 hPa SE 2.1 km/h 6.4 km/h 97 % 0 mm
11:30 -11.9 °C -12.1 °C 34496.6 hPa SE 0.8 km/h 5.1 km/h 98 % 0 mm
11:35 -11.7 °C -11.9 °C 34496.6 hPa SSE 1 km/h 6.4 km/h 98 % 0 mm
11:37 -11.7 °C -11.9 °C 34496.6 hPa SSE 2.1 km/h 6.4 km/h 97 % 0 mm
11:43 -11.6 °C -11.8 °C 34476.3 hPa SSE 3.1 km/h 6.4 km/h 97 % 0 mm
11:48 -11.4 °C -11.7 °C 34476.3 hPa SE 2.6 km/h 6.4 km/h 97 % 0 mm
11:53 -11.4 °C -11.6 °C 34476.3 hPa ESE 4.2 km/h 6.9 km/h 97 % 0 mm
11:57 -11.3 °C -11.6 °C 34476.3 hPa SE 4.7 km/h 7.6 km/h 97 % 0 mm
12:02 -11.3 °C -11.6 °C 34496.6 hPa South 5 km/h 9.8 km/h 97 % 0 mm
12:05 -11.2 °C -11.4 °C 34496.6 hPa South 5.1 km/h 9.8 km/h 97 % 0 mm
12:10 -11.1 °C -11.3 °C 34496.6 hPa South 6.4 km/h 9.8 km/h 97 % 0 mm
12:11 -11.1 °C -11.3 °C 34496.6 hPa South 6.4 km/h 9.8 km/h 97 % 0 mm
12:16 -10.9 °C -11.2 °C 34476.3 hPa South 5.5 km/h 9.8 km/h 97 % 0 mm
12:18 -10.8 °C -11.1 °C 34476.3 hPa South 5.1 km/h 9.8 km/h 97 % 0 mm
12:23 -10.8 °C -11.1 °C 34476.3 hPa South 3.9 km/h 7.6 km/h 97 % 0 mm
12:25 -10.7 °C -11 °C 34476.3 hPa South 3.9 km/h 7.6 km/h 97 % 0 mm
12:31 -10.6 °C -10.8 °C 34476.3 hPa South 3.4 km/h 7.6 km/h 97 % 0 mm
12:35 -10.4 °C -10.7 °C 34476.3 hPa SW 2.6 km/h 14.5 km/h 97 % 0 mm
12:40 -10.3 °C -10.5 °C 34476.3 hPa WSW 4.3 km/h 14.5 km/h 97 % 0 mm
12:43 -10.3 °C -10.5 °C 34496.6 hPa WSW 5.1 km/h 14.5 km/h 97 % 0 mm
12:48 -10.3 °C -10.6 °C 34496.6 hPa WSW 5 km/h 10.3 km/h 96 % 0 mm
12:51 -10.3 °C -10.6 °C 34496.6 hPa West 3.4 km/h 10.3 km/h 96 % 0 mm
12:56 -10.2 °C -10.6 °C 34496.6 hPa West 4.2 km/h 11.1 km/h 96 % 0 mm
12:59 -10.2 °C -10.6 °C 34496.6 hPa WSW 4.3 km/h 11.1 km/h 96 % 0 mm
13:05 -10.3 °C -10.7 °C 34496.6 hPa SW 5 km/h 9.3 km/h 95 % 0 mm
13:10 -10.3 °C -10.7 °C 34496.6 hPa WSW 5.1 km/h 10.3 km/h 95 % 0 mm
13:14 -10.3 °C -10.7 °C 34496.6 hPa West 2.9 km/h 10.3 km/h 95 % 0 mm
13:19 -10.3 °C -10.8 °C 34496.6 hPa WSW 2.1 km/h 11.1 km/h 94 % 0 mm
13:24 -10.2 °C -10.7 °C 34496.6 hPa WSW 3.9 km/h 11.1 km/h 94 % 0 mm
13:29 -10.2 °C -10.8 °C 34476.3 hPa WSW 2.9 km/h 8 km/h 93 % 0 mm
13:34 -10.2 °C -10.8 °C 34476.3 hPa West 2.6 km/h 9.3 km/h 93 % 0 mm
13:39 -10.2 °C -10.8 °C 34476.3 hPa WSW 2.6 km/h 9.3 km/h 93 % 0 mm
13:44 -10.2 °C -10.9 °C 34496.6 hPa WNW 2.6 km/h 14.5 km/h 92 % 0 mm
13:49 -10.2 °C -10.9 °C 34496.6 hPa West 6.8 km/h 16.9 km/h 92 % 0 mm
13:54 -10.2 °C -10.9 °C 34496.6 hPa West 6.4 km/h 16.9 km/h 91 % 0 mm
14:00 -10.2 °C -11.1 °C 34476.3 hPa West 3.9 km/h 9.3 km/h 90 % 0 mm
14:05 -10.2 °C -11.1 °C 34476.3 hPa WSW 5 km/h 14 km/h 90 % 0 mm
14:07 -10.2 °C -11.1 °C 34476.3 hPa WSW 6 km/h 14 km/h 90 % 0 mm
14:12 -10.2 °C -11.2 °C 34496.6 hPa WSW 5.5 km/h 14 km/h 89 % 0 mm
14:17 -10.2 °C -11.3 °C 34496.6 hPa WSW 2.6 km/h 8 km/h 88 % 0 mm
14:23 -10.2 °C -11.3 °C 34496.6 hPa WSW 1.3 km/h 6.4 km/h 88 % 0 mm
14:28 -10.2 °C -11.4 °C 34496.6 hPa WSW 0.5 km/h 3.4 km/h 87 % 0 mm
14:30 -10.2 °C -11.4 °C 34496.6 hPa Calm   6.9 km/h 87 % 0 mm
14:33 -10.2 °C -11.4 °C 34496.6 hPa WSW 0.5 km/h 6.9 km/h 87 % 0 mm
14:38 -10.2 °C -11.5 °C 34496.6 hPa WSW 0.5 km/h 6.9 km/h 86 % 0 mm
14:40 -10.2 °C -11.5 °C 34496.6 hPa WNW 1 km/h 7.6 km/h 86 % 0 mm
14:46 -10.2 °C -11.6 °C 34496.6 hPa NW 3.4 km/h 8 km/h 85 % 0 mm
14:49 -10.3 °C -11.7 °C 34496.6 hPa NW 3.7 km/h 8 km/h 85 % 0 mm
14:54 -10.3 °C -11.7 °C 34496.6 hPa West 2.1 km/h 7.6 km/h 85 % 0 mm
14:55 -10.3 °C -11.7 °C 34496.6 hPa West 1.6 km/h 7.6 km/h 85 % 0 mm
15:00 -10.3 °C -11.8 °C 34496.6 hPa WSW 0.5 km/h 7.6 km/h 84 % 0 mm
15:02 -10.3 °C -11.8 °C 34496.6 hPa Calm   4.2 km/h 84 % 0 mm
15:07 -10.3 °C -11.8 °C 34496.6 hPa West 0.8 km/h 5.1 km/h 84 % 0 mm
15:11 -10.3 °C -11.8 °C 34496.6 hPa West 0.8 km/h 5.1 km/h 84 % 0 mm
15:16 -10.3 °C -11.8 °C 34533.8 hPa WSW 0.8 km/h 5.6 km/h 84 % 0 mm
15:21 -10.4 °C -11.8 °C 34533.8 hPa West 2.9 km/h 6.4 km/h 84 % 0 mm
15:26 -10.4 °C -12 °C 34533.8 hPa West 4.7 km/h 9.3 km/h 83 % 0 mm
15:29 -10.4 °C -12 °C 34533.8 hPa West 4.3 km/h 9.3 km/h 83 % 0 mm
15:36 -10.6 °C -12.1 °C 34533.8 hPa WSW 1 km/h 6.4 km/h 83 % 0 mm
15:42 -10.7 °C -12.2 °C 34533.8 hPa Calm     83 % 0 mm
15:45 -10.7 °C -12.3 °C 34533.8 hPa Calm     83 % 0 mm
15:50 -10.8 °C -12.4 °C 34533.8 hPa Calm     83 % 0 mm
15:51 -10.9 °C -12.4 °C 34533.8 hPa Calm     83 % 0 mm
15:56 -10.9 °C -12.5 °C 34533.8 hPa Calm     83 % 0 mm
16:01 -11.1 °C -12.7 °C 34567.7 hPa Calm     83 % 0 mm
16:06 -11.2 °C -12.8 °C 34567.7 hPa Calm     83 % 0 mm
16:11 -11.4 °C -12.9 °C 34567.7 hPa Calm     83 % 0 mm
16:12 -11.4 °C -12.9 °C 34567.7 hPa Calm     83 % 0 mm
16:17 -11.6 °C -13.2 °C 34567.7 hPa Calm     83 % 0 mm
16:22 -11.8 °C -13.3 °C 34567.7 hPa Calm     83 % 0 mm
16:27 -11.9 °C -13.4 °C 34567.7 hPa Calm     83 % 0 mm
16:28 -11.9 °C -13.4 °C 34567.7 hPa Calm     83 % 0 mm
16:33 -12.1 °C -13.6 °C 34567.7 hPa Calm     83 % 0 mm
16:37 -12.1 °C -13.7 °C 34567.7 hPa Calm     83 % 0 mm
16:42 -12.3 °C -13.7 °C 34567.7 hPa Calm     84 % 0 mm
16:47 -12.4 °C -13.8 °C 34601.5 hPa Calm     84 % 0 mm
16:52 -12.5 °C -13.9 °C 34601.5 hPa Calm     84 % 0 mm
16:57 -12.6 °C -14.1 °C 34533.8 hPa Calm     84 % 0 mm
17:03 -12.7 °C -14.1 °C 34533.8 hPa Calm     84 % 0 mm
17:08 -12.9 °C -14.2 °C 34533.8 hPa Calm   8 km/h 85 % 0 mm
17:13 -13 °C -14.3 °C 34567.7 hPa NW 2.1 km/h 8.9 km/h 85 % 0 mm
17:14 -13 °C -14.3 °C 34567.7 hPa NW 2.1 km/h 8.9 km/h 85 % 0 mm
17:19 -13.1 °C -14.4 °C 34567.7 hPa NW 1.3 km/h 6.9 km/h 85 % 0 mm
17:24 -13.3 °C -14.6 °C 34567.7 hPa NNW 0.5 km/h 6.9 km/h 85 % 0 mm
17:31 -13.4 °C -14.6 °C 34567.7 hPa NW 2.3 km/h 6.9 km/h 86 % 0 mm
17:34 -13.4 °C -14.6 °C 34567.7 hPa NW 2.3 km/h 6.9 km/h 86 % 0 mm
17:39 -13.6 °C -14.8 °C 34567.7 hPa Calm     86 % 0 mm
17:44 -13.7 °C -14.9 °C 34567.7 hPa Calm     86 % 0 mm
17:49 -13.7 °C -14.9 °C 34567.7 hPa Calm     86 % 0 mm
17:54 -13.8 °C -15.1 °C 34567.7 hPa Calm     86 % 0 mm
17:59 -13.9 °C -15.1 °C 34567.7 hPa Calm     86 % 0 mm
18:00 -13.9 °C -15.1 °C 34567.7 hPa Calm     86 % 0 mm
18:05 -13.9 °C -15.1 °C 34567.7 hPa Calm     87 % 0 mm
18:10 -14 °C -15.1 °C 34567.7 hPa Calm     87 % 0 mm
18:15 -14 °C -15.1 °C 34567.7 hPa Calm     87 % 0 mm
18:20 -14.1 °C -15.2 °C 34567.7 hPa Calm     87 % 0 mm
18:21 -14.1 °C -15.2 °C 34567.7 hPa Calm     87 % 0 mm
18:26 -14.1 °C -15.1 °C 34567.7 hPa Calm     88 % 0 mm
18:30 -14.2 °C -15.2 °C 34601.5 hPa WNW 0.3 km/h 6.9 km/h 88 % 0 mm
18:35 -14.2 °C -15.2 °C 34601.5 hPa WNW 0.3 km/h 6.9 km/h 88 % 0 mm
18:40 -14.2 °C -15.2 °C 34601.5 hPa NW 0.8 km/h 5.6 km/h 88 % 0 mm
18:45 -14.3 °C -15.3 °C 34567.7 hPa NW 0.8 km/h 5.6 km/h 88 % 0 mm
18:50 -14.3 °C -15.2 °C 34567.7 hPa Calm     89 % 0 mm
18:54 -14.3 °C -15.2 °C 34567.7 hPa Calm     89 % 0 mm
18:59 -14.4 °C -15.3 °C 34601.5 hPa Calm     89 % 0 mm
19:04 -14.4 °C -15.3 °C 34601.5 hPa Calm     89 % 0 mm
19:09 -14.4 °C -15.3 °C 34601.5 hPa Calm     89 % 0 mm
19:14 -14.4 °C -15.3 °C 34635.4 hPa Calm     90 % 0 mm
19:18 -14.4 °C -15.3 °C 34635.4 hPa Calm     90 % 0 mm
19:24 -14.4 °C -15.3 °C 34635.4 hPa Calm     90 % 0 mm
19:25 -14.5 °C -15.2 °C 34635.4 hPa Calm     91 % 0 mm
19:31 -14.6 °C -15.3 °C 34601.5 hPa Calm     91 % 0 mm
19:36 -14.6 °C -15.3 °C 34601.5 hPa Calm     91 % 0 mm
19:40 -14.5 °C -15.2 °C 34601.5 hPa Calm     91 % 0 mm
19:44 -14.6 °C -15.3 °C 34635.4 hPa Calm     91 % 0 mm
19:47 -14.5 °C -15.2 °C 34635.4 hPa Calm     91 % 0 mm
19:52 -14.5 °C -15.2 °C 34635.4 hPa Calm     92 % 0 mm
19:54 -14.5 °C -15.2 °C 34635.4 hPa Calm     92 % 0 mm
19:58 -14.6 °C -15.2 °C 34635.4 hPa Calm     92 % 0 mm
20:03 -14.6 °C -15.2 °C 34635.4 hPa Calm     92 % 0 mm
20:08 -14.6 °C -15.2 °C 34635.4 hPa Calm     92 % 0 mm
20:10 -14.6 °C -15.2 °C 34635.4 hPa Calm     92 % 0 mm
20:15 -14.6 °C -15.2 °C 34635.4 hPa Calm     92 % 0 mm
20:19 -14.5 °C -15.1 °C 34635.4 hPa Calm     93 % 0 mm
20:21 -14.5 °C -15.1 °C 34635.4 hPa Calm     93 % 0 mm
20:26 -14.5 °C -15.1 °C 34635.4 hPa Calm     93 % 0 mm
20:28 -14.4 °C -15.1 °C 34635.4 hPa Calm     93 % 0 mm
20:34 -14.4 °C -15.1 °C 34635.4 hPa Calm     93 % 0 mm
20:39 -14.4 °C -15.1 °C 34635.4 hPa Calm     93 % 0 mm
20:44 -14.4 °C -15.1 °C 34635.4 hPa Calm     93 % 0 mm
20:49 -14.5 °C -15.1 °C 34635.4 hPa Calm     93 % 0 mm
20:54 -14.5 °C -15 °C 34635.4 hPa Calm     94 % 0 mm
20:59 -14.5 °C -15 °C 34601.5 hPa Calm     94 % 0 mm
21:04 -14.6 °C -15.1 °C 34601.5 hPa Calm     94 % 0 mm
21:09 -14.6 °C -15.1 °C 34601.5 hPa Calm     94 % 0 mm
21:14 -14.6 °C -15.1 °C 34635.4 hPa Calm     94 % 0 mm
21:15 -14.6 °C -15.1 °C 34635.4 hPa Calm     94 % 0 mm
21:20 -14.7 °C -15.2 °C 34635.4 hPa Calm     94 % 0 mm
21:25 -14.7 °C -15.2 °C 34635.4 hPa Calm     94 % 0 mm
21:36 -14.7 °C -15.2 °C 34635.4 hPa Calm     94 % 0 mm
21:41 -14.7 °C -15.2 °C 34635.4 hPa Calm     94 % 0 mm
21:46 -14.8 °C -15.3 °C 34601.5 hPa Calm     94 % 0 mm
21:50 -14.8 °C -15.3 °C 34601.5 hPa Calm     94 % 0 mm
21:56 -14.8 °C -15.3 °C 34601.5 hPa Calm     94 % 0 mm
22:01 -14.8 °C -15.3 °C 34635.4 hPa Calm     94 % 0 mm
22:07 -14.9 °C -15.4 °C 34635.4 hPa Calm     94 % 0 mm
22:12 -14.9 °C -15.4 °C 34601.5 hPa Calm     94 % 0 mm
22:17 -14.9 °C -15.4 °C 34601.5 hPa Calm     94 % 0 mm
22:22 -15 °C -15.4 °C 34601.5 hPa Calm     95 % 0 mm
22:27 -15.1 °C -15.4 °C 34635.4 hPa Calm     95 % 0 mm
22:32 -15.1 °C -15.4 °C 34635.4 hPa Calm     95 % 0 mm
22:37 -15.1 °C -15.5 °C 34635.4 hPa Calm     95 % 0 mm
22:41 -15.1 °C -15.5 °C 34635.4 hPa Calm     95 % 0 mm
22:45 -15.1 °C -15.5 °C 34601.5 hPa Calm     95 % 0 mm
22:50 -15.2 °C -15.6 °C 34601.5 hPa Calm     95 % 0 mm
22:56 -15.2 °C -15.6 °C 34601.5 hPa Calm     95 % 0 mm
23:02 -15.2 °C -15.6 °C 34635.4 hPa Calm     95 % 0 mm
23:07 -15.3 °C -15.7 °C 34635.4 hPa Calm     95 % 0 mm
23:09 -15.3 °C -15.7 °C 34635.4 hPa Calm     95 % 0 mm
23:14 -15.3 °C -15.7 °C 34635.4 hPa Calm     95 % 0 mm
23:19 -15.3 °C -15.7 °C 34635.4 hPa Calm     95 % 0 mm
23:22 -15.4 °C -15.8 °C 34635.4 hPa Calm     95 % 0 mm
23:27 -15.4 °C -15.8 °C 34635.4 hPa Calm     95 % 0 mm
23:32 -15.5 °C -15.9 °C 34635.4 hPa Calm     95 % 0 mm
23:37 -15.5 °C -15.9 °C 34635.4 hPa Calm     95 % 0 mm
23:43 -15.5 °C -15.9 °C 34635.4 hPa Calm     95 % 0 mm
23:44 -15.5 °C -15.9 °C 34635.4 hPa Calm     95 % 0 mm
23:49 -15.5 °C -15.9 °C 34635.4 hPa Calm     95 % 0 mm
23:55 -15.6 °C -15.9 °C 34635.4 hPa Calm     95 % 0 mm
Vremenska postaja Senovo
Podatki zbrani iz Weather Underground - 3.25 mb

Script developed by  Jim McMurry - jmcmurry@mwt.net Adapted for the template by  Wim van der Kuil - Leuven-Template.eu

Vremenski podatki so objavljeni na:

European Weather Network

WeatherCloud

Weather Underground

AWEKAS

HAMweather, WeatherForYou, PWS Weather

MapView

Geostik

Slovenia weather network

Oprema, ki se uporablja:

Vremenski program
Cumulus

Vremenski server
Asus

Cumulus

Asus